Bahri Jeddah — HZFG — position and weather

sailwx.info

Track history (hours):
 
Tides and Currents Weather Stations Pressure Air Temp Water Temp Dewpoint Dewpoint Depression Visibility Wind Speed Wind Dir Waves Ship Positions

Bahri Jeddah

Last reported at 2017-Nov-18 16:55 UTC. Time now 2017-Nov-22 02:02 UTC.
Position N 36°46' W 075°42'.

Length 225 m; draft 8.2 m.

Type: Cargo ship. MMSI: 403531001.

Date/timePositionNaut miles runAvg speedWind from/ knotsBaromVisibWave heightAir tempDewpointWater temp
2017-Nov-18 16:55N 36°46' W 075°42'4 9.4
2017-Nov-18 16:29N 36°49' W 075°46'5 9.2
2017-Nov-18 15:56N 36°51' W 075°52'4 8.4
2017-Nov-18 15:31N 36°54' W 075°55'4 8.0
2017-Nov-18 15:00N 36°57' W 075°59'3 6.7
2017-Nov-18 14:30N 36°59' W 076°01'612.9
2017-Nov-18 14:01N 37°04' W 076°06'3213.5
2017-Nov-18 11:38N 37°37' W 076°05'715.4
2017-Nov-18 11:11N 37°42' W 076°10'315.6
2017-Nov-18 11:00N 37°45' W 076°10'815.6
2017-Nov-18 10:30N 37°53' W 076°10'815.8
2017-Nov-18 09:59N 38°01' W 076°12'915.7
2017-Nov-18 09:24N 38°10' W 076°14'715.7
2017-Nov-18 08:59N 38°16' W 076°17'715.5
2017-Nov-18 08:30N 38°23' W 076°20'815.3
2017-Nov-18 08:00N 38°30' W 076°24'815.2
2017-Nov-18 07:30N 38°37' W 076°26'815.6
2017-Nov-18 07:00N 38°45' W 076°26'815.7
2017-Nov-18 06:31N 38°53' W 076°24'714.5
2017-Nov-18 06:01N 38°60' W 076°23'612.9
2017-Nov-18 05:31N 39°06' W 076°24'611.2
2017-Nov-18 05:01N 39°11' W 076°27'5 9.4
2017-Nov-18 04:31N 39°14' W 076°32'1 2.0
2017-Nov-18 04:00N 39°14' W 076°31'0 0.0
2017-Nov-18 03:30N 39°14' W 076°31'0 0.0
2017-Nov-18 03:00N 39°14' W 076°31'0 0.0
2017-Nov-18 02:30N 39°15' W 076°31'0 0.0
2017-Nov-18 02:00N 39°14' W 076°31'0 0.0
2017-Nov-18 01:30N 39°14' W 076°31'0 0.0
2017-Nov-18 01:00N 39°14' W 076°31'0 0.0
2017-Nov-18 00:27N 39°14' W 076°31'0 0.0
2017-Nov-18 00:00N 39°15' W 076°31'0 0.0
2017-Nov-17 23:30N 39°14' W 076°31'0 0.0
2017-Nov-17 23:00N 39°15' W 076°31'0 0.0
2017-Nov-17 22:30N 39°14' W 076°31'0 0.0
2017-Nov-17 22:00N 39°15' W 076°31'0 0.0
2017-Nov-17 21:30N 39°15' W 076°31'0 0.0
2017-Nov-17 21:00N 39°14' W 076°31'0 0.0
2017-Nov-17 20:30N 39°15' W 076°31'0 0.0
2017-Nov-17 20:00N 39°14' W 076°31'0 0.0
2017-Nov-17 19:30N 39°14' W 076°31'0 0.0
2017-Nov-17 18:57N 39°14' W 076°31'0 0.0
2017-Nov-17 18:30N 39°14' W 076°31'0 0.0
2017-Nov-17 18:00N 39°14' W 076°31'0 0.0
2017-Nov-17 17:30N 39°14' W 076°31'0 0.0
2017-Nov-17 17:00N 39°14' W 076°31'0 0.0
2017-Nov-17 16:30N 39°14' W 076°31'0 0.0
2017-Nov-17 16:00N 39°14' W 076°31'0 0.0
2017-Nov-17 15:30N 39°14' W 076°31'0 0.0
2017-Nov-17 15:00N 39°14' W 076°31'0 0.0
2017-Nov-17 14:30N 39°14' W 076°31'0 0.0
2017-Nov-17 14:00N 39°14' W 076°31'0 0.0
2017-Nov-17 13:30N 39°15' W 076°31'0 0.0
2017-Nov-17 13:00N 39°14' W 076°31'0 0.0
2017-Nov-17 12:30N 39°14' W 076°31'0 0.0
2017-Nov-17 12:00N 39°14' W 076°31'0 0.0
2017-Nov-17 11:30N 39°14' W 076°31'0 0.0
2017-Nov-17 11:00N 39°14' W 076°31'0 0.0
2017-Nov-17 10:30N 39°14' W 076°31'0 0.0
2017-Nov-17 10:00N 39°14' W 076°31'0 0.0
2017-Nov-17 09:30N 39°14' W 076°31'0 0.0
2017-Nov-17 09:00N 39°15' W 076°31'0 0.0
2017-Nov-17 08:30N 39°14' W 076°31'0 0.0
2017-Nov-17 08:00N 39°15' W 076°31'0 0.0
2017-Nov-17 07:30N 39°14' W 076°31'0 0.0
2017-Nov-17 07:00N 39°14' W 076°31'0 0.0
2017-Nov-17 06:30N 39°14' W 076°31'0 0.0
2017-Nov-17 06:00N 39°14' W 076°31'0 0.0
2017-Nov-17 05:30N 39°14' W 076°31'0 0.0
2017-Nov-17 05:00N 39°14' W 076°31'0 0.0
2017-Nov-17 04:30N 39°14' W 076°31'1 1.3
2017-Nov-17 04:00N 39°14' W 076°32'2 4.5
2017-Nov-17 03:30N 39°12' W 076°31'612.0
2017-Nov-17 03:00N 39°09' W 076°24'714.1
2017-Nov-17 02:31N 39°02' W 076°23'713.6
2017-Nov-17 02:01N 38°55' W 076°23'713.9
2017-Nov-17 01:31N 38°48' W 076°25'4013.8
2017-Nov-16 22:37N 38°09' W 076°14'215.6
2017-Nov-16 22:30N 38°07' W 076°14'1015.3
2017-Nov-16 21:53N 37°58' W 076°11'514.3
2017-Nov-16 21:30N 37°53' W 076°10'4213.9
2017-Nov-16 18:28N 37°11' W 076°09'714.0
2017-Nov-16 18:00N 37°05' W 076°06'611.3
2017-Nov-16 17:30N 37°00' W 076°02'5 9.8
2017-Nov-16 17:00N 36°56' W 075°58'4 7.0
2017-Nov-16 16:30N 36°55' W 075°54'4 8.7
2017-Nov-16 16:00N 36°52' W 075°50'4 8.7
2017-Nov-16 15:30N 36°49' W 075°45'10212.6
2017-Nov-16 07:22N 35°11' W 075°10'513.9
2017-Nov-16 07:01N 35°06' W 075°10'612.2
2017-Nov-16 06:29N 35°00' W 075°14'913.6
2017-Nov-16 05:48N 34°54' W 075°23'413.7
2017-Nov-16 05:30N 34°52' W 075°26'3513.5
2017-Nov-16 02:53N 34°28' W 075°59'2113.7
2017-Nov-16 01:19N 34°14' W 076°18'614.4
2017-Nov-16 00:54N 34°10' W 076°23'78 6.0
2017-Nov-15 11:53N 34°11' W 077°57'2 4.1
2017-Nov-15 11:30N 34°13' W 077°57'1 0.1
2017-Nov-14 16:15N 34°11' W 077°57'14211.6
2017-Nov-14 04:03N 32°15' W 079°34'114.6
2017-Nov-14 03:57N 32°14' W 079°36'2414.6
2017-Nov-14 02:18N 32°03' W 080°01'715.4
2017-Nov-14 01:51N 32°01' W 080°09'515.2
2017-Nov-14 01:30N 31°59' W 080°15'612.1
2017-Nov-14 00:59N 31°59' W 080°22'4 8.6
2017-Nov-14 00:30N 31°58' W 080°27'4 8.6
2017-Nov-14 00:00N 31°58' W 080°32'5 9.0
2017-Nov-13 23:30N 31°58' W 080°37'5 9.0
2017-Nov-13 23:00N 31°57' W 080°42'611.3
2017-Nov-13 22:30N 32°00' W 080°48'611.3
2017-Nov-13 22:00N 32°02' W 080°54'301 8.4
2017-Nov-12 09:56N 27°07' W 079°43'614.7
2017-Nov-12 09:30N 27°01' W 079°44'815.7
2017-Nov-12 08:58N 26°53' W 079°44'817.2
2017-Nov-12 08:30N 26°44' W 079°45'917.6
2017-Nov-12 08:00N 26°36' W 079°45'917.6
2017-Nov-12 07:30N 26°27' W 079°46'917.3
2017-Nov-12 07:00N 26°19' W 079°47'917.8
2017-Nov-12 06:30N 26°10' W 079°48'917.9
2017-Nov-12 06:00N 26°01' W 079°50'917.9
2017-Nov-12 05:30N 25°52' W 079°51'918.1
2017-Nov-12 05:00N 25°43' W 079°52'918.3
2017-Nov-12 04:30N 25°34' W 079°54'918.2
2017-Nov-12 04:00N 25°25' W 079°56'917.8
2017-Nov-12 03:30N 25°17' W 080°00'917.8
2017-Nov-12 03:00N 25°09' W 080°04'13315.9
2017-Nov-11 18:40N 24°11' W 082°16'315.8
2017-Nov-11 18:30N 24°11' W 082°19'815.6
2017-Nov-11 17:59N 24°11' W 082°27'815.5
2017-Nov-11 17:29N 24°11' W 082°36'3814.3
2017-Nov-11 14:51N 24°14' W 083°17'3014.5
2017-Nov-11 12:48N 24°26' W 083°47'65715.2
2017-Nov-09 17:31N 29°21' W 094°45'116.3
2017-Nov-09 17:27N 29°21' W 094°46'715.6
2017-Nov-09 17:00N 29°26' W 094°50'714.3
2017-Nov-09 16:30N 29°33' W 094°54'612.4
2017-Nov-09 16:00N 29°38' W 094°58'510.2
2017-Nov-09 15:30N 29°42' W 095°01'4 8.3
2017-Nov-09 15:00N 29°45' W 095°04'3 6.0
2017-Nov-09 14:30N 29°44' W 095°07'3 5.9
2017-Nov-09 13:59N 29°45' W 095°11'2 5.2
2017-Nov-09 13:30N 29°43' W 095°13'3 5.1
2017-Nov-09 13:00N 29°44' W 095°16'0 0.1
2017-Nov-09 12:29N 29°44' W 095°16'0 0.0
2017-Nov-09 11:59N 29°44' W 095°16'0 0.0
2017-Nov-09 11:26N 29°44' W 095°16'0 0.0
2017-Nov-09 10:59N 29°44' W 095°16'0 0.0
2017-Nov-09 10:29N 29°44' W 095°16'0 0.0
2017-Nov-09 09:58N 29°44' W 095°16'0 0.0
2017-Nov-09 09:07N 29°44' W 095°16'0 0.0
2017-Nov-09 08:52N 29°44' W 095°16'0 0.0
2017-Nov-09 08:28N 29°44' W 095°16'0 0.0
2017-Nov-09 07:46N 29°44' W 095°16'0 0.0
2017-Nov-09 07:28N 29°44' W 095°16'0 0.0
2017-Nov-09 06:58N 29°44' W 095°16'0 0.0
2017-Nov-09 06:22N 29°44' W 095°16'0 0.0
2017-Nov-09 05:55N 29°44' W 095°16'0 0.0
2017-Nov-09 05:16N 29°44' W 095°16'0 0.0
2017-Nov-09 04:46N 29°44' W 095°16'0 0.0
2017-Nov-09 04:28N 29°44' W 095°16'0 0.0
2017-Nov-09 03:58N 29°44' W 095°16'0 0.0
2017-Nov-09 03:28N 29°44' W 095°16'0 0.0
2017-Nov-09 02:58N 29°44' W 095°16'0 0.0
2017-Nov-09 02:25N 29°44' W 095°16'0 0.0
2017-Nov-09 01:58N 29°44' W 095°16'0 0.0
2017-Nov-09 01:28N 29°44' W 095°16'0 0.0
2017-Nov-09 00:55N 29°44' W 095°16'0 0.0
2017-Nov-09 00:25N 29°44' W 095°16'0 0.0
2017-Nov-08 23:58N 29°44' W 095°16'0 0.0
2017-Nov-08 23:16N 29°44' W 095°16'0 0.0
2017-Nov-08 22:52N 29°44' W 095°16'0 0.0
2017-Nov-08 22:25N 29°44' W 095°16'0 0.0
2017-Nov-08 21:58N 29°44' W 095°16'0 0.0
2017-Nov-08 21:16N 29°44' W 095°16'0 0.0
2017-Nov-08 20:58N 29°44' W 095°16'0 0.0
2017-Nov-08 20:16N 29°44' W 095°16'0 0.0
2017-Nov-08 19:43N 29°44' W 095°16'0 0.0
2017-Nov-08 19:25N 29°44' W 095°16'0 0.0
2017-Nov-08 18:49N 29°44' W 095°16'0 0.0
2017-Nov-08 18:28N 29°44' W 095°16'0 0.0
2017-Nov-08 17:58N 29°44' W 095°16'0 0.0
2017-Nov-08 17:28N 29°44' W 095°16'  
Track history (hours):
 
Tides and Currents Weather Stations Pressure Air Temp Water Temp Dewpoint Dewpoint Depression Visibility Wind Speed Wind Dir Waves Ship Positions

Bahri Jeddah

Last reported at 2017-Nov-18 16:55 UTC. Time now 2017-Nov-22 02:02 UTC.
Position N 36°46' W 075°42'.

Length 225 m; draft 8.2 m.

Type: Cargo ship. MMSI: 403531001.

Date/timePositionNaut miles runAvg speedWind from/ knotsBaromVisibWave heightAir tempDewpointWater temp
2017-Nov-18 16:55N 36°46' W 075°42'4 9.4
2017-Nov-18 16:29N 36°49' W 075°46'5 9.2
2017-Nov-18 15:56N 36°51' W 075°52'4 8.4
2017-Nov-18 15:31N 36°54' W 075°55'4 8.0
2017-Nov-18 15:00N 36°57' W 075°59'3 6.7
2017-Nov-18 14:30N 36°59' W 076°01'612.9
2017-Nov-18 14:01N 37°04' W 076°06'3213.5
2017-Nov-18 11:38N 37°37' W 076°05'715.4
2017-Nov-18 11:11N 37°42' W 076°10'315.6
2017-Nov-18 11:00N 37°45' W 076°10'815.6
2017-Nov-18 10:30N 37°53' W 076°10'815.8
2017-Nov-18 09:59N 38°01' W 076°12'915.7
2017-Nov-18 09:24N 38°10' W 076°14'715.7
2017-Nov-18 08:59N 38°16' W 076°17'715.5
2017-Nov-18 08:30N 38°23' W 076°20'815.3
2017-Nov-18 08:00N 38°30' W 076°24'815.2
2017-Nov-18 07:30N 38°37' W 076°26'815.6
2017-Nov-18 07:00N 38°45' W 076°26'815.7
2017-Nov-18 06:31N 38°53' W 076°24'714.5
2017-Nov-18 06:01N 38°60' W 076°23'612.9
2017-Nov-18 05:31N 39°06' W 076°24'611.2
2017-Nov-18 05:01N 39°11' W 076°27'5 9.4
2017-Nov-18 04:31N 39°14' W 076°32'1 2.0
2017-Nov-18 04:00N 39°14' W 076°31'0 0.0
2017-Nov-18 03:30N 39°14' W 076°31'0 0.0
2017-Nov-18 03:00N 39°14' W 076°31'0 0.0
2017-Nov-18 02:30N 39°15' W 076°31'0 0.0
2017-Nov-18 02:00N 39°14' W 076°31'0 0.0
2017-Nov-18 01:30N 39°14' W 076°31'0 0.0
2017-Nov-18 01:00N 39°14' W 076°31'0 0.0
2017-Nov-18 00:27N 39°14' W 076°31'0 0.0
2017-Nov-18 00:00N 39°15' W 076°31'0 0.0
2017-Nov-17 23:30N 39°14' W 076°31'0 0.0
2017-Nov-17 23:00N 39°15' W 076°31'0 0.0
2017-Nov-17 22:30N 39°14' W 076°31'0 0.0
2017-Nov-17 22:00N 39°15' W 076°31'0 0.0
2017-Nov-17 21:30N 39°15' W 076°31'0 0.0
2017-Nov-17 21:00N 39°14' W 076°31'0 0.0
2017-Nov-17 20:30N 39°15' W 076°31'0 0.0
2017-Nov-17 20:00N 39°14' W 076°31'0 0.0
2017-Nov-17 19:30N 39°14' W 076°31'0 0.0
2017-Nov-17 18:57N 39°14' W 076°31'0 0.0
2017-Nov-17 18:30N 39°14' W 076°31'0 0.0
2017-Nov-17 18:00N 39°14' W 076°31'0 0.0
2017-Nov-17 17:30N 39°14' W 076°31'0 0.0
2017-Nov-17 17:00N 39°14' W 076°31'0 0.0
2017-Nov-17 16:30N 39°14' W 076°31'0 0.0
2017-Nov-17 16:00N 39°14' W 076°31'0 0.0
2017-Nov-17 15:30N 39°14' W 076°31'0 0.0
2017-Nov-17 15:00N 39°14' W 076°31'0 0.0
2017-Nov-17 14:30N 39°14' W 076°31'0 0.0
2017-Nov-17 14:00N 39°14' W 076°31'0 0.0
2017-Nov-17 13:30N 39°15' W 076°31'0 0.0
2017-Nov-17 13:00N 39°14' W 076°31'0 0.0
2017-Nov-17 12:30N 39°14' W 076°31'0 0.0
2017-Nov-17 12:00N 39°14' W 076°31'0 0.0
2017-Nov-17 11:30N 39°14' W 076°31'0 0.0
2017-Nov-17 11:00N 39°14' W 076°31'0 0.0
2017-Nov-17 10:30N 39°14' W 076°31'0 0.0
2017-Nov-17 10:00N 39°14' W 076°31'0 0.0
2017-Nov-17 09:30N 39°14' W 076°31'0 0.0
2017-Nov-17 09:00N 39°15' W 076°31'0 0.0
2017-Nov-17 08:30N 39°14' W 076°31'0 0.0
2017-Nov-17 08:00N 39°15' W 076°31'0 0.0
2017-Nov-17 07:30N 39°14' W 076°31'0 0.0
2017-Nov-17 07:00N 39°14' W 076°31'0 0.0
2017-Nov-17 06:30N 39°14' W 076°31'0 0.0
2017-Nov-17 06:00N 39°14' W 076°31'0 0.0
2017-Nov-17 05:30N 39°14' W 076°31'0 0.0
2017-Nov-17 05:00N 39°14' W 076°31'0 0.0
2017-Nov-17 04:30N 39°14' W 076°31'1 1.3
2017-Nov-17 04:00N 39°14' W 076°32'2 4.5
2017-Nov-17 03:30N 39°12' W 076°31'612.0
2017-Nov-17 03:00N 39°09' W 076°24'714.1
2017-Nov-17 02:31N 39°02' W 076°23'713.6
2017-Nov-17 02:01N 38°55' W 076°23'713.9
2017-Nov-17 01:31N 38°48' W 076°25'4013.8
2017-Nov-16 22:37N 38°09' W 076°14'215.6
2017-Nov-16 22:30N 38°07' W 076°14'1015.3
2017-Nov-16 21:53N 37°58' W 076°11'514.3
2017-Nov-16 21:30N 37°53' W 076°10'4213.9
2017-Nov-16 18:28N 37°11' W 076°09'714.0
2017-Nov-16 18:00N 37°05' W 076°06'611.3
2017-Nov-16 17:30N 37°00' W 076°02'5 9.8
2017-Nov-16 17:00N 36°56' W 075°58'4 7.0
2017-Nov-16 16:30N 36°55' W 075°54'4 8.7
2017-Nov-16 16:00N 36°52' W 075°50'4 8.7
2017-Nov-16 15:30N 36°49' W 075°45'10212.6
2017-Nov-16 07:22N 35°11' W 075°10'513.9
2017-Nov-16 07:01N 35°06' W 075°10'612.2
2017-Nov-16 06:29N 35°00' W 075°14'913.6
2017-Nov-16 05:48N 34°54' W 075°23'413.7
2017-Nov-16 05:30N 34°52' W 075°26'3513.5
2017-Nov-16 02:53N 34°28' W 075°59'2113.7
2017-Nov-16 01:19N 34°14' W 076°18'614.4
2017-Nov-16 00:54N 34°10' W 076°23'78 6.0
2017-Nov-15 11:53N 34°11' W 077°57'2 4.1
2017-Nov-15 11:30N 34°13' W 077°57'1 0.1
2017-Nov-14 16:15N 34°11' W 077°57'14211.6
2017-Nov-14 04:03N 32°15' W 079°34'114.6
2017-Nov-14 03:57N 32°14' W 079°36'2414.6
2017-Nov-14 02:18N 32°03' W 080°01'715.4
2017-Nov-14 01:51N 32°01' W 080°09'515.2
2017-Nov-14 01:30N 31°59' W 080°15'612.1
2017-Nov-14 00:59N 31°59' W 080°22'4 8.6
2017-Nov-14 00:30N 31°58' W 080°27'4 8.6
2017-Nov-14 00:00N 31°58' W 080°32'5 9.0
2017-Nov-13 23:30N 31°58' W 080°37'5 9.0
2017-Nov-13 23:00N 31°57' W 080°42'611.3
2017-Nov-13 22:30N 32°00' W 080°48'611.3
2017-Nov-13 22:00N 32°02' W 080°54'301 8.4
2017-Nov-12 09:56N 27°07' W 079°43'614.7
2017-Nov-12 09:30N 27°01' W 079°44'815.7
2017-Nov-12 08:58N 26°53' W 079°44'817.2
2017-Nov-12 08:30N 26°44' W 079°45'917.6
2017-Nov-12 08:00N 26°36' W 079°45'917.6
2017-Nov-12 07:30N 26°27' W 079°46'917.3
2017-Nov-12 07:00N 26°19' W 079°47'917.8
2017-Nov-12 06:30N 26°10' W 079°48'917.9
2017-Nov-12 06:00N 26°01' W 079°50'917.9
2017-Nov-12 05:30N 25°52' W 079°51'918.1
2017-Nov-12 05:00N 25°43' W 079°52'918.3
2017-Nov-12 04:30N 25°34' W 079°54'918.2
2017-Nov-12 04:00N 25°25' W 079°56'917.8
2017-Nov-12 03:30N 25°17' W 080°00'917.8
2017-Nov-12 03:00N 25°09' W 080°04'13315.9
2017-Nov-11 18:40N 24°11' W 082°16'315.8
2017-Nov-11 18:30N 24°11' W 082°19'815.6
2017-Nov-11 17:59N 24°11' W 082°27'815.5
2017-Nov-11 17:29N 24°11' W 082°36'3814.3
2017-Nov-11 14:51N 24°14' W 083°17'3014.5
2017-Nov-11 12:48N 24°26' W 083°47'65715.2
2017-Nov-09 17:31N 29°21' W 094°45'116.3
2017-Nov-09 17:27N 29°21' W 094°46'715.6
2017-Nov-09 17:00N 29°26' W 094°50'714.3
2017-Nov-09 16:30N 29°33' W 094°54'612.4
2017-Nov-09 16:00N 29°38' W 094°58'510.2
2017-Nov-09 15:30N 29°42' W 095°01'4 8.3
2017-Nov-09 15:00N 29°45' W 095°04'3 6.0
2017-Nov-09 14:30N 29°44' W 095°07'3 5.9
2017-Nov-09 13:59N 29°45' W 095°11'2 5.2
2017-Nov-09 13:30N 29°43' W 095°13'3 5.1
2017-Nov-09 13:00N 29°44' W 095°16'0 0.1
2017-Nov-09 12:29N 29°44' W 095°16'0 0.0
2017-Nov-09 11:59N 29°44' W 095°16'0 0.0
2017-Nov-09 11:26N 29°44' W 095°16'0 0.0
2017-Nov-09 10:59N 29°44' W 095°16'0 0.0
2017-Nov-09 10:29N 29°44' W 095°16'0 0.0
2017-Nov-09 09:58N 29°44' W 095°16'0 0.0
2017-Nov-09 09:07N 29°44' W 095°16'0 0.0
2017-Nov-09 08:52N 29°44' W 095°16'0 0.0
2017-Nov-09 08:28N 29°44' W 095°16'0 0.0
2017-Nov-09 07:46N 29°44' W 095°16'0 0.0
2017-Nov-09 07:28N 29°44' W 095°16'0 0.0
2017-Nov-09 06:58N 29°44' W 095°16'0 0.0
2017-Nov-09 06:22N 29°44' W 095°16'0 0.0
2017-Nov-09 05:55N 29°44' W 095°16'0 0.0
2017-Nov-09 05:16N 29°44' W 095°16'0 0.0
2017-Nov-09 04:46N 29°44' W 095°16'0 0.0
2017-Nov-09 04:28N 29°44' W 095°16'0 0.0
2017-Nov-09 03:58N 29°44' W 095°16'0 0.0
2017-Nov-09 03:28N 29°44' W 095°16'0 0.0
2017-Nov-09 02:58N 29°44' W 095°16'0 0.0
2017-Nov-09 02:25N 29°44' W 095°16'0 0.0
2017-Nov-09 01:58N 29°44' W 095°16'0 0.0
2017-Nov-09 01:28N 29°44' W 095°16'0 0.0
2017-Nov-09 00:55N 29°44' W 095°16'0 0.0
2017-Nov-09 00:25N 29°44' W 095°16'0 0.0
2017-Nov-08 23:58N 29°44' W 095°16'0 0.0
2017-Nov-08 23:16N 29°44' W 095°16'0 0.0
2017-Nov-08 22:52N 29°44' W 095°16'0 0.0
2017-Nov-08 22:25N 29°44' W 095°16'0 0.0
2017-Nov-08 21:58N 29°44' W 095°16'0 0.0
2017-Nov-08 21:16N 29°44' W 095°16'0 0.0
2017-Nov-08 20:58N 29°44' W 095°16'0 0.0
2017-Nov-08 20:16N 29°44' W 095°16'0 0.0
2017-Nov-08 19:43N 29°44' W 095°16'0 0.0
2017-Nov-08 19:25N 29°44' W 095°16'0 0.0
2017-Nov-08 18:49N 29°44' W 095°16'0 0.0
2017-Nov-08 18:28N 29°44' W 095°16'0 0.0
2017-Nov-08 17:58N 29°44' W 095°16'0 0.0
2017-Nov-08 17:28N 29°44' W 095°16'  

Dump ship's entire track history